sensor_id;sensor_type;location;lat;lon;timestamp;temperature;humidity
774;DHT22;370;48.810;9.150;2022-11-15T00:01:15;11.10;8.20
774;DHT22;370;48.810;9.150;2022-11-15T00:03:43;11.10;8.50
774;DHT22;370;48.810;9.150;2022-11-15T00:06:12;11.20;7.90
774;DHT22;370;48.810;9.150;2022-11-15T00:08:38;11.20;8.00
774;DHT22;370;48.810;9.150;2022-11-15T00:11:05;11.30;8.00
774;DHT22;370;48.810;9.150;2022-11-15T00:13:32;11.20;7.80
774;DHT22;370;48.810;9.150;2022-11-15T00:16:00;11.30;7.20
774;DHT22;370;48.810;9.150;2022-11-15T00:18:28;11.10;7.90
774;DHT22;370;48.810;9.150;2022-11-15T00:20:55;11.10;7.70
774;DHT22;370;48.810;9.150;2022-11-15T00:23:23;11.10;8.40
774;DHT22;370;48.810;9.150;2022-11-15T00:25:55;11.10;8.20
774;DHT22;370;48.810;9.150;2022-11-15T00:28:22;11.10;9.50
774;DHT22;370;48.810;9.150;2022-11-15T00:30:49;11.10;9.80
774;DHT22;370;48.810;9.150;2022-11-15T00:33:16;11.10;10.20
774;DHT22;370;48.810;9.150;2022-11-15T00:35:43;11.10;10.90
774;DHT22;370;48.810;9.150;2022-11-15T00:38:10;11.00;11.20
774;DHT22;370;48.810;9.150;2022-11-15T00:40:38;11.00;11.80
774;DHT22;370;48.810;9.150;2022-11-15T00:43:05;10.90;11.90
774;DHT22;370;48.810;9.150;2022-11-15T00:45:32;10.90;12.50
774;DHT22;370;48.810;9.150;2022-11-15T00:47:58;10.80;12.80
774;DHT22;370;48.810;9.150;2022-11-15T00:50:25;10.80;13.90
774;DHT22;370;48.810;9.150;2022-11-15T00:52:52;10.70;14.30
774;DHT22;370;48.810;9.150;2022-11-15T00:55:19;10.60;14.20
774;DHT22;370;48.810;9.150;2022-11-15T00:57:47;10.50;15.20
774;DHT22;370;48.810;9.150;2022-11-15T01:00:14;10.40;15.50
774;DHT22;370;48.810;9.150;2022-11-15T01:02:41;10.40;16.20
774;DHT22;370;48.810;9.150;2022-11-15T01:05:08;10.40;16.00
774;DHT22;370;48.810;9.150;2022-11-15T01:07:35;10.30;16.50
774;DHT22;370;48.810;9.150;2022-11-15T01:10:02;10.30;17.00
774;DHT22;370;48.810;9.150;2022-11-15T01:12:29;10.20;17.10
774;DHT22;370;48.810;9.150;2022-11-15T01:14:57;10.10;17.70
774;DHT22;370;48.810;9.150;2022-11-15T01:17:24;10.00;17.70
774;DHT22;370;48.810;9.150;2022-11-15T01:19:51;9.80;20.40
774;DHT22;370;48.810;9.150;2022-11-15T01:22:18;9.60;21.00
774;DHT22;370;48.810;9.150;2022-11-15T01:24:44;9.50;22.50
774;DHT22;370;48.810;9.150;2022-11-15T01:27:11;9.30;22.50
774;DHT22;370;48.810;9.150;2022-11-15T01:29:38;9.20;24.20
774;DHT22;370;48.810;9.150;2022-11-15T01:32:06;9.10;25.10
774;DHT22;370;48.810;9.150;2022-11-15T01:34:33;9.00;26.00
774;DHT22;370;48.810;9.150;2022-11-15T01:37:00;9.00;25.70
774;DHT22;370;48.810;9.150;2022-11-15T01:39:27;8.90;26.20
774;DHT22;370;48.810;9.150;2022-11-15T01:41:54;8.80;26.40
774;DHT22;370;48.810;9.150;2022-11-15T01:44:42;8.70;27.50
774;DHT22;370;48.810;9.150;2022-11-15T01:47:15;8.60;27.80
774;DHT22;370;48.810;9.150;2022-11-15T01:49:49;8.50;28.90
774;DHT22;370;48.810;9.150;2022-11-15T01:52:19;8.40;28.90
774;DHT22;370;48.810;9.150;2022-11-15T01:54:47;8.30;29.60
774;DHT22;370;48.810;9.150;2022-11-15T01:57:15;8.20;29.90
774;DHT22;370;48.810;9.150;2022-11-15T01:59:43;8.10;29.90
774;DHT22;370;48.810;9.150;2022-11-15T02:02:13;8.10;31.00
774;DHT22;370;48.810;9.150;2022-11-15T02:04:42;8.10;31.50
774;DHT22;370;48.810;9.150;2022-11-15T02:07:11;8.00;32.60
774;DHT22;370;48.810;9.150;2022-11-15T02:09:39;8.10;33.80
774;DHT22;370;48.810;9.150;2022-11-15T02:12:07;8.10;33.80
774;DHT22;370;48.810;9.150;2022-11-15T02:14:38;8.20;34.60
774;DHT22;370;48.810;9.150;2022-11-15T02:17:19;8.20;34.30
774;DHT22;370;48.810;9.150;2022-11-15T02:25:56;8.20;33.80
774;DHT22;370;48.810;9.150;2022-11-15T02:31:24;8.20;34.60
774;DHT22;370;48.810;9.150;2022-11-15T02:33:58;8.30;35.10
774;DHT22;370;48.810;9.150;2022-11-15T02:36:35;8.30;34.80
774;DHT22;370;48.810;9.150;2022-11-15T02:39:06;8.30;34.50
774;DHT22;370;48.810;9.150;2022-11-15T02:41:40;8.30;34.30
774;DHT22;370;48.810;9.150;2022-11-15T02:44:13;8.30;35.20
774;DHT22;370;48.810;9.150;2022-11-15T02:46:45;8.30;35.20
774;DHT22;370;48.810;9.150;2022-11-15T02:49:33;8.20;34.60
774;DHT22;370;48.810;9.150;2022-11-15T02:52:01;8.20;37.30
774;DHT22;370;48.810;9.150;2022-11-15T02:54:30;8.20;37.70
774;DHT22;370;48.810;9.150;2022-11-15T02:57:01;8.30;38.70
774;DHT22;370;48.810;9.150;2022-11-15T03:00:03;8.30;37.70
774;DHT22;370;48.810;9.150;2022-11-15T03:02:46;8.40;37.30
774;DHT22;370;48.810;9.150;2022-11-15T03:05:19;8.30;37.90
774;DHT22;370;48.810;9.150;2022-11-15T03:07:54;8.20;38.10
774;DHT22;370;48.810;9.150;2022-11-15T03:10:29;8.10;39.10
774;DHT22;370;48.810;9.150;2022-11-15T03:13:00;8.10;39.30
774;DHT22;370;48.810;9.150;2022-11-15T03:15:31;8.10;36.80
774;DHT22;370;48.810;9.150;2022-11-15T03:18:02;8.00;36.90
774;DHT22;370;48.810;9.150;2022-11-15T03:20:31;8.00;36.10
774;DHT22;370;48.810;9.150;2022-11-15T03:23:05;8.00;37.50
774;DHT22;370;48.810;9.150;2022-11-15T03:25:34;7.90;37.40
774;DHT22;370;48.810;9.150;2022-11-15T03:28:05;7.90;39.40
774;DHT22;370;48.810;9.150;2022-11-15T03:30:34;7.90;39.00
774;DHT22;370;48.810;9.150;2022-11-15T03:33:05;8.00;38.00
774;DHT22;370;48.810;9.150;2022-11-15T03:35:35;8.10;36.70
774;DHT22;370;48.810;9.150;2022-11-15T03:38:09;8.10;36.30
774;DHT22;370;48.810;9.150;2022-11-15T03:40:40;8.20;35.10
774;DHT22;370;48.810;9.150;2022-11-15T03:43:11;8.20;34.50
774;DHT22;370;48.810;9.150;2022-11-15T03:45:45;8.30;34.40
774;DHT22;370;48.810;9.150;2022-11-15T03:48:17;8.30;34.60
774;DHT22;370;48.810;9.150;2022-11-15T03:50:45;8.40;33.90
774;DHT22;370;48.810;9.150;2022-11-15T03:53:13;8.40;33.30
774;DHT22;370;48.810;9.150;2022-11-15T03:55:40;8.40;33.10
774;DHT22;370;48.810;9.150;2022-11-15T03:58:07;8.30;33.10
774;DHT22;370;48.810;9.150;2022-11-15T04:00:34;8.10;35.40
774;DHT22;370;48.810;9.150;2022-11-15T04:03:00;8.20;35.80
774;DHT22;370;48.810;9.150;2022-11-15T04:05:29;8.30;36.50
774;DHT22;370;48.810;9.150;2022-11-15T04:07:55;8.40;35.20
774;DHT22;370;48.810;9.150;2022-11-15T04:10:22;8.50;34.80
774;DHT22;370;48.810;9.150;2022-11-15T04:12:49;8.60;34.10
774;DHT22;370;48.810;9.150;2022-11-15T04:15:17;8.60;33.10
774;DHT22;370;48.810;9.150;2022-11-15T04:17:46;8.70;31.60
774;DHT22;370;48.810;9.150;2022-11-15T04:20:16;8.70;30.80
774;DHT22;370;48.810;9.150;2022-11-15T04:23:04;8.80;30.40
774;DHT22;370;48.810;9.150;2022-11-15T04:25:50;8.80;30.40
774;DHT22;370;48.810;9.150;2022-11-15T04:28:18;8.80;30.40
774;DHT22;370;48.810;9.150;2022-11-15T04:30:45;8.90;30.50
774;DHT22;370;48.810;9.150;2022-11-15T04:33:12;8.90;29.60
774;DHT22;370;48.810;9.150;2022-11-15T04:35:38;8.90;30.50
774;DHT22;370;48.810;9.150;2022-11-15T04:38:08;8.90;29.50
774;DHT22;370;48.810;9.150;2022-11-15T04:40:36;8.80;30.40
774;DHT22;370;48.810;9.150;2022-11-15T04:43:03;8.70;30.30
774;DHT22;370;48.810;9.150;2022-11-15T04:45:30;8.80;30.40
774;DHT22;370;48.810;9.150;2022-11-15T04:47:57;8.70;30.20
774;DHT22;370;48.810;9.150;2022-11-15T04:50:24;8.60;30.20
774;DHT22;370;48.810;9.150;2022-11-15T04:52:52;8.60;30.20
774;DHT22;370;48.810;9.150;2022-11-15T04:55:22;8.50;30.10
774;DHT22;370;48.810;9.150;2022-11-15T04:57:57;8.40;30.10
774;DHT22;370;48.810;9.150;2022-11-15T05:00:25;8.40;30.00
774;DHT22;370;48.810;9.150;2022-11-15T05:02:53;8.30;30.90
774;DHT22;370;48.810;9.150;2022-11-15T05:05:37;8.20;32.20
774;DHT22;370;48.810;9.150;2022-11-15T05:08:04;8.10;32.80
774;DHT22;370;48.810;9.150;2022-11-15T05:10:32;8.20;34.00
774;DHT22;370;48.810;9.150;2022-11-15T05:12:59;8.20;34.30
774;DHT22;370;48.810;9.150;2022-11-15T05:15:25;8.20;34.60
774;DHT22;370;48.810;9.150;2022-11-15T05:17:57;8.20;34.00
774;DHT22;370;48.810;9.150;2022-11-15T05:20:24;8.10;35.10
774;DHT22;370;48.810;9.150;2022-11-15T05:22:52;8.10;35.60
774;DHT22;370;48.810;9.150;2022-11-15T05:25:19;8.10;35.60
774;DHT22;370;48.810;9.150;2022-11-15T05:27:47;8.00;35.80
774;DHT22;370;48.810;9.150;2022-11-15T05:30:14;8.00;36.30
774;DHT22;370;48.810;9.150;2022-11-15T05:32:42;8.00;36.50
774;DHT22;370;48.810;9.150;2022-11-15T05:35:13;8.00;37.10
774;DHT22;370;48.810;9.150;2022-11-15T05:37:41;8.00;37.60
774;DHT22;370;48.810;9.150;2022-11-15T05:40:09;8.10;38.20
774;DHT22;370;48.810;9.150;2022-11-15T05:42:36;8.20;37.30
774;DHT22;370;48.810;9.150;2022-11-15T05:45:07;8.30;37.50
774;DHT22;370;48.810;9.150;2022-11-15T05:47:36;8.30;37.20
774;DHT22;370;48.810;9.150;2022-11-15T05:50:05;8.30;36.90
774;DHT22;370;48.810;9.150;2022-11-15T05:52:34;8.40;36.50
774;DHT22;370;48.810;9.150;2022-11-15T05:55:07;8.50;36.00
774;DHT22;370;48.810;9.150;2022-11-15T05:57:39;8.50;35.70
774;DHT22;370;48.810;9.150;2022-11-15T06:00:09;8.60;35.40
774;DHT22;370;48.810;9.150;2022-11-15T06:02:36;8.60;33.90
774;DHT22;370;48.810;9.150;2022-11-15T06:05:03;8.60;33.50
774;DHT22;370;48.810;9.150;2022-11-15T06:07:30;8.60;33.40
774;DHT22;370;48.810;9.150;2022-11-15T06:09:57;8.60;33.70
774;DHT22;370;48.810;9.150;2022-11-15T06:12:24;8.60;33.30
774;DHT22;370;48.810;9.150;2022-11-15T06:14:53;8.50;34.20
774;DHT22;370;48.810;9.150;2022-11-15T06:17:21;8.50;36.60
774;DHT22;370;48.810;9.150;2022-11-15T06:19:48;8.50;35.20
774;DHT22;370;48.810;9.150;2022-11-15T06:22:15;8.50;34.30
774;DHT22;370;48.810;9.150;2022-11-15T06:24:41;8.50;33.50
774;DHT22;370;48.810;9.150;2022-11-15T06:27:10;8.50;33.90
774;DHT22;370;48.810;9.150;2022-11-15T06:29:37;8.50;33.20
774;DHT22;370;48.810;9.150;2022-11-15T06:32:04;8.50;33.10
774;DHT22;370;48.810;9.150;2022-11-15T06:34:32;8.50;32.10
774;DHT22;370;48.810;9.150;2022-11-15T06:37:01;8.30;35.40
774;DHT22;370;48.810;9.150;2022-11-15T06:39:28;8.40;35.80
774;DHT22;370;48.810;9.150;2022-11-15T06:41:55;8.40;35.70
774;DHT22;370;48.810;9.150;2022-11-15T06:44:22;8.50;36.20
774;DHT22;370;48.810;9.150;2022-11-15T06:46:48;8.60;35.40
774;DHT22;370;48.810;9.150;2022-11-15T06:49:15;8.70;34.60
774;DHT22;370;48.810;9.150;2022-11-15T06:51:44;8.70;35.30
774;DHT22;370;48.810;9.150;2022-11-15T06:54:11;8.80;35.00
774;DHT22;370;48.810;9.150;2022-11-15T06:56:37;8.90;34.40
774;DHT22;370;48.810;9.150;2022-11-15T06:59:04;9.00;33.50
774;DHT22;370;48.810;9.150;2022-11-15T07:01:31;9.10;32.10
774;DHT22;370;48.810;9.150;2022-11-15T07:03:58;9.20;30.70
774;DHT22;370;48.810;9.150;2022-11-15T07:06:24;9.30;30.80
774;DHT22;370;48.810;9.150;2022-11-15T07:08:52;9.40;30.30
774;DHT22;370;48.810;9.150;2022-11-15T07:11:19;9.60;29.30
774;DHT22;370;48.810;9.150;2022-11-15T07:13:46;9.60;27.90
774;DHT22;370;48.810;9.150;2022-11-15T07:16:13;9.70;25.60
774;DHT22;370;48.810;9.150;2022-11-15T07:18:40;9.80;21.50
774;DHT22;370;48.810;9.150;2022-11-15T07:21:08;9.90;19.00
774;DHT22;370;48.810;9.150;2022-11-15T07:23:36;10.10;15.70
774;DHT22;370;48.810;9.150;2022-11-15T07:26:05;10.20;16.00
774;DHT22;370;48.810;9.150;2022-11-15T07:28:32;10.40;14.10
774;DHT22;370;48.810;9.150;2022-11-15T07:31:02;10.80;13.00
774;DHT22;370;48.810;9.150;2022-11-15T07:33:29;11.00;9.80
774;DHT22;370;48.810;9.150;2022-11-15T07:35:59;11.30;8.40
774;DHT22;370;48.810;9.150;2022-11-15T07:38:27;11.70;6.20
774;DHT22;370;48.810;9.150;2022-11-15T07:40:56;12.00;4.70
774;DHT22;370;48.810;9.150;2022-11-15T07:43:24;12.30;4.20
774;DHT22;370;48.810;9.150;2022-11-15T07:45:53;12.50;1.80
774;DHT22;370;48.810;9.150;2022-11-15T07:48:20;12.80;1.60
774;DHT22;370;48.810;9.150;2022-11-15T07:50:47;13.00;1.00
774;DHT22;370;48.810;9.150;2022-11-15T07:53:14;13.20;1.00
774;DHT22;370;48.810;9.150;2022-11-15T07:55:41;13.30;1.00
774;DHT22;370;48.810;9.150;2022-11-15T07:58:10;13.20;1.00
774;DHT22;370;48.810;9.150;2022-11-15T08:00:38;13.30;1.00
774;DHT22;370;48.810;9.150;2022-11-15T08:03:06;13.40;1.00
774;DHT22;370;48.810;9.150;2022-11-15T08:05:34;13.50;1.00
774;DHT22;370;48.810;9.150;2022-11-15T08:08:01;13.50;1.00
774;DHT22;370;48.810;9.150;2022-11-15T08:10:29;13.50;1.00
774;DHT22;370;48.810;9.150;2022-11-15T08:12:59;14.00;1.00
774;DHT22;370;48.810;9.150;2022-11-15T08:15:26;14.30;1.00
774;DHT22;370;48.810;9.150;2022-11-15T08:17:56;14.30;1.00
774;DHT22;370;48.810;9.150;2022-11-15T08:20:23;14.60;1.00
774;DHT22;370;48.810;9.150;2022-11-15T08:22:50;14.70;1.00
774;DHT22;370;48.810;9.150;2022-11-15T08:25:17;14.80;1.00
774;DHT22;370;48.810;9.150;2022-11-15T08:27:44;14.90;1.00
774;DHT22;370;48.810;9.150;2022-11-15T08:30:12;14.90;1.00
774;DHT22;370;48.810;9.150;2022-11-15T08:32:39;15.00;1.00
774;DHT22;370;48.810;9.150;2022-11-15T08:35:08;15.00;1.00
774;DHT22;370;48.810;9.150;2022-11-15T08:37:34;15.00;1.00
774;DHT22;370;48.810;9.150;2022-11-15T08:40:01;15.20;1.00
774;DHT22;370;48.810;9.150;2022-11-15T08:42:28;15.30;1.00
774;DHT22;370;48.810;9.150;2022-11-15T08:44:55;15.50;1.00
774;DHT22;370;48.810;9.150;2022-11-15T08:47:22;16.40;1.00
774;DHT22;370;48.810;9.150;2022-11-15T08:49:49;17.40;1.00
774;DHT22;370;48.810;9.150;2022-11-15T08:52:17;18.90;1.00
774;DHT22;370;48.810;9.150;2022-11-15T08:54:44;19.40;1.00
774;DHT22;370;48.810;9.150;2022-11-15T08:57:11;19.60;1.00
774;DHT22;370;48.810;9.150;2022-11-15T08:59:38;20.20;1.00
774;DHT22;370;48.810;9.150;2022-11-15T09:02:05;21.40;1.00
774;DHT22;370;48.810;9.150;2022-11-15T09:04:31;22.60;1.00
774;DHT22;370;48.810;9.150;2022-11-15T09:06:58;24.70;1.00
774;DHT22;370;48.810;9.150;2022-11-15T09:09:26;25.60;1.00
774;DHT22;370;48.810;9.150;2022-11-15T09:11:53;26.90;1.00
774;DHT22;370;48.810;9.150;2022-11-15T09:14:20;27.30;1.00
774;DHT22;370;48.810;9.150;2022-11-15T09:16:47;27.70;1.00
774;DHT22;370;48.810;9.150;2022-11-15T09:19:13;27.40;1.00
774;DHT22;370;48.810;9.150;2022-11-15T09:21:41;29.00;1.00
774;DHT22;370;48.810;9.150;2022-11-15T09:24:07;27.90;1.00
774;DHT22;370;48.810;9.150;2022-11-15T09:26:36;27.80;1.00
774;DHT22;370;48.810;9.150;2022-11-15T09:29:03;27.90;1.00
774;DHT22;370;48.810;9.150;2022-11-15T09:31:29;27.70;1.00
774;DHT22;370;48.810;9.150;2022-11-15T09:33:56;27.10;1.00
774;DHT22;370;48.810;9.150;2022-11-15T09:36:23;26.30;1.00
774;DHT22;370;48.810;9.150;2022-11-15T09:38:50;26.10;1.00
774;DHT22;370;48.810;9.150;2022-11-15T09:41:41;26.80;1.00
774;DHT22;370;48.810;9.150;2022-11-15T09:44:24;27.60;1.00
774;DHT22;370;48.810;9.150;2022-11-15T09:47:00;29.40;1.00
774;DHT22;370;48.810;9.150;2022-11-15T09:49:32;30.90;1.00
774;DHT22;370;48.810;9.150;2022-11-15T09:51:59;31.80;1.00
774;DHT22;370;48.810;9.150;2022-11-15T09:54:29;31.80;1.00
774;DHT22;370;48.810;9.150;2022-11-15T09:57:04;31.40;1.00
774;DHT22;370;48.810;9.150;2022-11-15T09:59:47;30.80;1.00
774;DHT22;370;48.810;9.150;2022-11-15T10:02:27;30.40;1.00
774;DHT22;370;48.810;9.150;2022-11-15T10:04:58;29.60;1.00
774;DHT22;370;48.810;9.150;2022-11-15T10:07:28;28.50;1.00
774;DHT22;370;48.810;9.150;2022-11-15T10:10:02;27.60;1.00
774;DHT22;370;48.810;9.150;2022-11-15T10:12:32;26.60;1.00
774;DHT22;370;48.810;9.150;2022-11-15T10:15:02;25.60;1.00
774;DHT22;370;48.810;9.150;2022-11-15T10:17:52;25.00;1.00
774;DHT22;370;48.810;9.150;2022-11-15T10:20:24;24.50;1.00
774;DHT22;370;48.810;9.150;2022-11-15T10:22:54;24.00;1.00
774;DHT22;370;48.810;9.150;2022-11-15T10:25:24;23.10;1.00
774;DHT22;370;48.810;9.150;2022-11-15T10:27:56;22.30;1.00
774;DHT22;370;48.810;9.150;2022-11-15T10:30:30;21.40;1.00
774;DHT22;370;48.810;9.150;2022-11-15T10:32:57;20.60;1.00
774;DHT22;370;48.810;9.150;2022-11-15T10:35:26;19.80;1.00
774;DHT22;370;48.810;9.150;2022-11-15T10:38:04;19.30;1.00
774;DHT22;370;48.810;9.150;2022-11-15T10:40:31;18.80;1.00
774;DHT22;370;48.810;9.150;2022-11-15T10:43:12;18.60;1.00
774;DHT22;370;48.810;9.150;2022-11-15T10:45:40;18.50;1.00
774;DHT22;370;48.810;9.150;2022-11-15T10:48:25;18.30;1.00
774;DHT22;370;48.810;9.150;2022-11-15T10:50:53;18.10;1.00
774;DHT22;370;48.810;9.150;2022-11-15T10:53:28;17.90;1.00
774;DHT22;370;48.810;9.150;2022-11-15T10:56:00;18.20;1.00
774;DHT22;370;48.810;9.150;2022-11-15T10:58:36;18.40;1.00
774;DHT22;370;48.810;9.150;2022-11-15T11:01:12;18.20;1.00
774;DHT22;370;48.810;9.150;2022-11-15T11:03:41;18.30;1.00
774;DHT22;370;48.810;9.150;2022-11-15T11:06:11;18.30;1.00
774;DHT22;370;48.810;9.150;2022-11-15T11:08:38;18.30;1.00
774;DHT22;370;48.810;9.150;2022-11-15T11:11:06;18.20;1.00
774;DHT22;370;48.810;9.150;2022-11-15T11:13:37;18.20;1.00
774;DHT22;370;48.810;9.150;2022-11-15T11:16:26;18.10;1.00
774;DHT22;370;48.810;9.150;2022-11-15T11:19:03;18.00;1.00
774;DHT22;370;48.810;9.150;2022-11-15T11:21:42;18.00;1.00
774;DHT22;370;48.810;9.150;2022-11-15T11:24:16;18.00;1.00
774;DHT22;370;48.810;9.150;2022-11-15T11:26:49;18.10;1.00
774;DHT22;370;48.810;9.150;2022-11-15T11:29:30;18.20;1.00
774;DHT22;370;48.810;9.150;2022-11-15T11:32:04;18.30;1.00
774;DHT22;370;48.810;9.150;2022-11-15T11:34:43;18.30;1.00
774;DHT22;370;48.810;9.150;2022-11-15T11:37:17;18.40;1.00
774;DHT22;370;48.810;9.150;2022-11-15T11:39:56;18.60;1.00
774;DHT22;370;48.810;9.150;2022-11-15T11:42:34;18.70;1.00
774;DHT22;370;48.810;9.150;2022-11-15T11:45:19;18.90;1.00
774;DHT22;370;48.810;9.150;2022-11-15T11:47:51;18.90;1.00
774;DHT22;370;48.810;9.150;2022-11-15T11:50:25;19.00;1.00
774;DHT22;370;48.810;9.150;2022-11-15T11:52:57;19.30;1.00
774;DHT22;370;48.810;9.150;2022-11-15T11:55:27;19.60;1.00
774;DHT22;370;48.810;9.150;2022-11-15T11:58:02;19.70;1.00
774;DHT22;370;48.810;9.150;2022-11-15T12:00:35;19.90;1.00
774;DHT22;370;48.810;9.150;2022-11-15T12:03:09;20.10;1.00
774;DHT22;370;48.810;9.150;2022-11-15T12:05:41;20.30;1.00
774;DHT22;370;48.810;9.150;2022-11-15T12:08:28;20.50;1.00
774;DHT22;370;48.810;9.150;2022-11-15T12:11:03;20.90;1.00
774;DHT22;370;48.810;9.150;2022-11-15T12:13:34;21.20;1.00
774;DHT22;370;48.810;9.150;2022-11-15T12:16:08;21.40;1.00
774;DHT22;370;48.810;9.150;2022-11-15T12:18:36;21.30;1.00
774;DHT22;370;48.810;9.150;2022-11-15T12:21:07;21.10;1.00
774;DHT22;370;48.810;9.150;2022-11-15T12:23:39;20.80;1.00
774;DHT22;370;48.810;9.150;2022-11-15T12:26:10;20.70;1.00
774;DHT22;370;48.810;9.150;2022-11-15T12:28:40;20.50;1.00
774;DHT22;370;48.810;9.150;2022-11-15T12:31:14;20.30;1.00
774;DHT22;370;48.810;9.150;2022-11-15T12:33:44;20.10;1.00
774;DHT22;370;48.810;9.150;2022-11-15T12:36:30;19.80;1.00
774;DHT22;370;48.810;9.150;2022-11-15T12:39:00;19.40;1.00
774;DHT22;370;48.810;9.150;2022-11-15T12:41:28;19.10;1.00
774;DHT22;370;48.810;9.150;2022-11-15T12:43:56;19.00;1.00
774;DHT22;370;48.810;9.150;2022-11-15T12:47:00;18.80;1.00
774;DHT22;370;48.810;9.150;2022-11-15T12:49:45;18.70;1.00
774;DHT22;370;48.810;9.150;2022-11-15T12:52:12;18.50;1.00
774;DHT22;370;48.810;9.150;2022-11-15T12:57:45;17.80;1.00
774;DHT22;370;48.810;9.150;2022-11-15T13:00:36;17.60;1.00
774;DHT22;370;48.810;9.150;2022-11-15T13:03:26;17.60;1.00
774;DHT22;370;48.810;9.150;2022-11-15T13:06:05;17.60;1.00
774;DHT22;370;48.810;9.150;2022-11-15T13:08:39;17.70;1.00
774;DHT22;370;48.810;9.150;2022-11-15T13:14:43;17.60;1.00
774;DHT22;370;48.810;9.150;2022-11-15T13:17:34;17.50;1.00
774;DHT22;370;48.810;9.150;2022-11-15T13:20:23;17.50;1.00
774;DHT22;370;48.810;9.150;2022-11-15T13:22:52;17.50;1.00
774;DHT22;370;48.810;9.150;2022-11-15T13:28:32;17.20;1.00
774;DHT22;370;48.810;9.150;2022-11-15T13:31:01;17.20;1.00
774;DHT22;370;48.810;9.150;2022-11-15T13:33:31;17.20;1.00
774;DHT22;370;48.810;9.150;2022-11-15T13:36:06;17.20;1.00
774;DHT22;370;48.810;9.150;2022-11-15T13:38:37;17.10;1.00
774;DHT22;370;48.810;9.150;2022-11-15T13:41:17;17.00;1.00
774;DHT22;370;48.810;9.150;2022-11-15T13:43:46;16.70;1.00
774;DHT22;370;48.810;9.150;2022-11-15T13:46:15;16.50;1.00
774;DHT22;370;48.810;9.150;2022-11-15T13:48:44;16.40;1.00
774;DHT22;370;48.810;9.150;2022-11-15T13:51:17;16.20;1.00
774;DHT22;370;48.810;9.150;2022-11-15T13:53:52;16.10;1.00
774;DHT22;370;48.810;9.150;2022-11-15T13:56:21;16.10;1.00
774;DHT22;370;48.810;9.150;2022-11-15T13:58:48;16.20;1.00
774;DHT22;370;48.810;9.150;2022-11-15T14:01:17;16.20;1.00
774;DHT22;370;48.810;9.150;2022-11-15T14:03:52;16.10;1.00
774;DHT22;370;48.810;9.150;2022-11-15T14:06:22;15.80;1.00
774;DHT22;370;48.810;9.150;2022-11-15T14:09:14;15.70;1.00
774;DHT22;370;48.810;9.150;2022-11-15T14:11:50;15.40;1.00
774;DHT22;370;48.810;9.150;2022-11-15T14:14:20;15.40;1.00
774;DHT22;370;48.810;9.150;2022-11-15T14:16:49;15.30;2.50
774;DHT22;370;48.810;9.150;2022-11-15T14:19:38;15.30;1.00
774;DHT22;370;48.810;9.150;2022-11-15T14:22:15;15.20;3.40
774;DHT22;370;48.810;9.150;2022-11-15T14:24:44;15.20;5.10
774;DHT22;370;48.810;9.150;2022-11-15T14:27:22;15.20;4.80
774;DHT22;370;48.810;9.150;2022-11-15T14:29:50;15.10;7.20
774;DHT22;370;48.810;9.150;2022-11-15T14:32:18;14.90;8.40
774;DHT22;370;48.810;9.150;2022-11-15T14:34:46;15.00;7.30
774;DHT22;370;48.810;9.150;2022-11-15T14:37:21;14.90;8.40
774;DHT22;370;48.810;9.150;2022-11-15T14:39:48;14.90;8.60
774;DHT22;370;48.810;9.150;2022-11-15T14:42:15;15.00;7.40
774;DHT22;370;48.810;9.150;2022-11-15T14:44:42;14.90;6.10
774;DHT22;370;48.810;9.150;2022-11-15T14:47:09;14.90;6.20
774;DHT22;370;48.810;9.150;2022-11-15T14:49:36;14.80;5.60
774;DHT22;370;48.810;9.150;2022-11-15T14:52:07;14.70;5.40
774;DHT22;370;48.810;9.150;2022-11-15T14:54:35;14.70;6.10
774;DHT22;370;48.810;9.150;2022-11-15T14:57:02;14.70;5.70
774;DHT22;370;48.810;9.150;2022-11-15T14:59:29;14.70;6.10
774;DHT22;370;48.810;9.150;2022-11-15T15:01:55;14.70;6.20
774;DHT22;370;48.810;9.150;2022-11-15T15:04:22;14.70;6.40
774;DHT22;370;48.810;9.150;2022-11-15T15:06:49;14.60;6.80
774;DHT22;370;48.810;9.150;2022-11-15T15:09:16;14.50;6.50
774;DHT22;370;48.810;9.150;2022-11-15T15:11:44;14.50;6.30
774;DHT22;370;48.810;9.150;2022-11-15T15:14:11;14.50;6.40
774;DHT22;370;48.810;9.150;2022-11-15T15:16:40;14.50;7.20
774;DHT22;370;48.810;9.150;2022-11-15T15:19:07;14.30;6.30
774;DHT22;370;48.810;9.150;2022-11-15T15:21:34;14.30;6.30
774;DHT22;370;48.810;9.150;2022-11-15T15:24:01;14.30;5.90
774;DHT22;370;48.810;9.150;2022-11-15T15:26:28;14.30;6.50
774;DHT22;370;48.810;9.150;2022-11-15T15:28:56;14.30;6.60
774;DHT22;370;48.810;9.150;2022-11-15T15:31:23;14.20;7.90
774;DHT22;370;48.810;9.150;2022-11-15T15:33:50;14.20;7.90
774;DHT22;370;48.810;9.150;2022-11-15T15:36:18;14.10;8.60
774;DHT22;370;48.810;9.150;2022-11-15T15:38:45;14.00;8.60
774;DHT22;370;48.810;9.150;2022-11-15T15:41:13;13.90;7.70
774;DHT22;370;48.810;9.150;2022-11-15T15:43:40;13.80;7.60
774;DHT22;370;48.810;9.150;2022-11-15T15:46:10;13.70;7.90
774;DHT22;370;48.810;9.150;2022-11-15T15:48:38;13.70;7.50
774;DHT22;370;48.810;9.150;2022-11-15T15:51:05;13.70;7.50
774;DHT22;370;48.810;9.150;2022-11-15T15:53:31;13.70;8.20
774;DHT22;370;48.810;9.150;2022-11-15T15:55:58;13.60;8.70
774;DHT22;370;48.810;9.150;2022-11-15T15:58:25;13.60;8.30
774;DHT22;370;48.810;9.150;2022-11-15T16:00:52;13.60;7.50
774;DHT22;370;48.810;9.150;2022-11-15T16:03:20;13.70;7.50
774;DHT22;370;48.810;9.150;2022-11-15T16:05:49;13.70;7.50
774;DHT22;370;48.810;9.150;2022-11-15T16:08:18;13.70;7.10
774;DHT22;370;48.810;9.150;2022-11-15T16:10:45;13.70;7.90
774;DHT22;370;48.810;9.150;2022-11-15T16:13:12;13.70;8.10
774;DHT22;370;48.810;9.150;2022-11-15T16:15:39;13.70;9.30
774;DHT22;370;48.810;9.150;2022-11-15T16:18:06;13.60;8.50
774;DHT22;370;48.810;9.150;2022-11-15T16:20:37;13.60;9.20
774;DHT22;370;48.810;9.150;2022-11-15T16:23:06;13.70;8.40
774;DHT22;370;48.810;9.150;2022-11-15T16:25:40;13.70;8.60
774;DHT22;370;48.810;9.150;2022-11-15T16:28:17;13.70;7.60
774;DHT22;370;48.810;9.150;2022-11-15T16:30:44;13.60;7.50
774;DHT22;370;48.810;9.150;2022-11-15T16:33:11;13.70;7.50
774;DHT22;370;48.810;9.150;2022-11-15T16:35:40;13.70;7.50
774;DHT22;370;48.810;9.150;2022-11-15T16:38:12;13.60;8.00
774;DHT22;370;48.810;9.150;2022-11-15T16:40:39;13.70;8.00
774;DHT22;370;48.810;9.150;2022-11-15T16:43:06;13.60;7.50
774;DHT22;370;48.810;9.150;2022-11-15T16:45:33;13.60;7.50
774;DHT22;370;48.810;9.150;2022-11-15T16:48:00;13.60;7.50
774;DHT22;370;48.810;9.150;2022-11-15T16:50:30;13.60;7.50
774;DHT22;370;48.810;9.150;2022-11-15T16:53:00;13.60;7.80
774;DHT22;370;48.810;9.150;2022-11-15T16:55:28;13.60;8.20
774;DHT22;370;48.810;9.150;2022-11-15T16:57:55;13.50;9.20
774;DHT22;370;48.810;9.150;2022-11-15T17:00:23;13.50;8.50
774;DHT22;370;48.810;9.150;2022-11-15T17:02:51;13.50;8.90
774;DHT22;370;48.810;9.150;2022-11-15T17:05:21;13.40;8.20
774;DHT22;370;48.810;9.150;2022-11-15T17:07:49;13.50;7.40
774;DHT22;370;48.810;9.150;2022-11-15T17:10:20;13.50;6.20
774;DHT22;370;48.810;9.150;2022-11-15T17:12:47;13.50;5.20
774;DHT22;370;48.810;9.150;2022-11-15T17:15:15;13.50;5.90
774;DHT22;370;48.810;9.150;2022-11-15T17:17:42;13.50;5.00
774;DHT22;370;48.810;9.150;2022-11-15T17:20:13;13.60;4.40
774;DHT22;370;48.810;9.150;2022-11-15T17:22:40;13.60;4.40
774;DHT22;370;48.810;9.150;2022-11-15T17:25:08;13.60;4.50
774;DHT22;370;48.810;9.150;2022-11-15T17:27:37;13.60;5.60
774;DHT22;370;48.810;9.150;2022-11-15T17:30:05;13.60;6.20